Time;durP1;ratioP1;P1;durP2;ratioP2;P2;SDS_P1;SDS_P2;PMS_P1;PMS_P2;Temp;Humidity;BMP_temperature;BMP_pressure;BME280_temperature;BME280_humidity;BME280_pressure;Samples;Min_cycle;Max_cycle;Signal;HPM_P1;HPM_P2
2023/03/30 00:01:17;;;;;;;24.02;2.85;;;;;;;-145.69;100.00;52258.22;5076023;28;20300;-82
2023/03/30 00:03:46;;;;;;;17.52;2.15;;;;;;;-145.69;100.00;52293.88;5072220;28;20262;-81
2023/03/30 00:06:20;;;;;;;13.50;3.30;;;;;;;-145.69;100.00;52291.91;5076033;28;20661;-82
2023/03/30 00:08:47;;;;;;;20.08;2.90;;;;;;;-145.69;100.00;52270.13;5076196;28;20224;-83
2023/03/30 00:11:16;;;;;;;25.00;3.40;;;;;;;-145.69;100.00;52282.00;5075956;28;20207;-82
2023/03/30 00:13:43;;;;;;;17.03;2.73;;;;;;;-145.69;100.00;52317.66;5075668;28;20206;-82
2023/03/30 00:16:13;;;;;;;19.73;2.63;;;;;;;-145.69;100.00;52274.06;5076163;28;20553;-82
2023/03/30 00:18:40;;;;;;;21.33;3.10;;;;;;;-145.69;100.00;52278.03;5078018;28;20207;-83
2023/03/30 00:21:08;;;;;;;14.80;3.30;;;;;;;-145.69;100.00;52289.91;5077893;28;20198;-83
2023/03/30 00:23:35;;;;;;;17.17;3.00;;;;;;;-145.69;100.00;52293.88;5077369;28;20198;-83
2023/03/30 00:26:01;;;;;;;13.33;2.67;;;;;;;-145.69;100.00;52297.84;5079262;28;20218;-84
2023/03/30 00:28:29;;;;;;;15.82;2.58;;;;;;;-145.69;100.00;52293.88;5080696;28;20203;-84
2023/03/30 00:30:56;;;;;;;17.17;2.57;;;;;;;-145.69;100.00;52278.03;5079710;28;20691;-84
2023/03/30 00:33:24;;;;;;;17.97;2.80;;;;;;;-145.69;100.00;52373.09;5077688;28;20227;-83
2023/03/30 00:35:55;;;;;;;12.77;2.97;;;;;;;-145.69;100.00;52254.28;5075790;28;20210;-82
2023/03/30 00:38:21;;;;;;;16.10;2.80;;;;;;;-145.69;100.00;52297.84;5076016;28;20198;-83
2023/03/30 00:40:51;;;;;;;15.23;3.17;;;;;;;-145.69;100.00;52325.56;5075632;28;20205;-82
2023/03/30 00:43:17;;;;;;;8.00;2.20;;;;;;;-145.69;100.00;52301.81;5075427;28;20234;-81
2023/03/30 00:45:44;;;;;;;11.80;2.83;;;;;;;-145.69;100.00;52305.75;5075594;28;20681;-82
2023/03/30 00:48:16;;;;;;;12.33;2.77;;;;;;;-145.69;100.00;52295.84;5075734;28;20202;-82
2023/03/30 00:50:48;;;;;;;18.10;3.07;;;;;;;-145.69;100.00;52297.84;5076557;28;20222;-83
2023/03/30 00:53:17;;;;;;;21.38;2.83;;;;;;;-145.69;100.00;52313.69;5075778;28;20657;-83
2023/03/30 00:55:45;;;;;;;18.97;2.80;;;;;;;-145.69;100.00;52297.84;5075429;28;20203;-82
2023/03/30 00:58:15;;;;;;;19.10;2.70;;;;;;;-145.69;100.00;52291.91;5075048;28;20191;-83
2023/03/30 01:00:42;;;;;;;9.55;2.50;;;;;;;-145.69;100.00;52289.91;5075795;28;20206;-83
2023/03/30 01:03:16;;;;;;;18.85;2.10;;;;;;;-145.69;100.00;52317.66;5076442;28;20209;-83
2023/03/30 01:05:45;;;;;;;12.77;2.38;;;;;;;-145.69;100.00;52315.66;5074877;28;20233;-82
2023/03/30 01:08:15;;;;;;;10.75;2.20;;;;;;;-145.69;100.00;52289.91;5075857;28;20195;-82
2023/03/30 01:10:42;;;;;;;11.32;1.77;;;;;;;-145.69;100.00;52303.78;5074720;28;20210;-82
2023/03/30 01:13:09;;;;;;;9.73;2.58;;;;;;;-145.69;100.00;52301.81;5075107;28;20210;-82
2023/03/30 01:15:43;;;;;;;11.80;1.95;;;;;;;-145.69;100.00;52295.84;5074942;28;20210;-82
2023/03/30 01:18:22;;;;;;;11.75;2.88;;;;;;;-145.69;100.00;52301.81;5075174;28;20198;-82
2023/03/30 01:21:29;;;;;;;17.15;2.72;;;;;;;-145.69;100.00;52266.16;5075215;28;20212;-83
2023/03/30 01:24:30;;;;;;;21.88;3.17;;;;;;;-145.69;100.00;52256.25;5040865;28;20211;-82
2023/03/30 01:26:59;;;;;;;26.13;2.83;;;;;;;-145.69;100.00;52248.34;5075225;28;20685;-83
2023/03/30 01:29:44;;;;;;;21.08;2.47;;;;;;;-145.69;100.00;52278.03;5074819;28;20195;-82
2023/03/30 01:32:44;;;;;;;14.30;2.30;;;;;;;-145.69;100.00;52309.72;5075218;28;20195;-83
2023/03/30 01:35:40;;;;;;;12.98;1.95;;;;;;;-145.69;100.00;52278.03;5074637;28;20654;-81
2023/03/30 01:38:42;;;;;;;19.58;2.65;;;;;;;-145.69;100.00;52282.00;5074640;28;20198;-82
2023/03/30 01:41:14;;;;;;;10.63;2.22;;;;;;;-145.69;100.00;52282.00;5058713;28;20198;-83
2023/03/30 01:43:48;;;;;;;16.23;2.65;;;;;;;-145.69;100.00;52289.91;5054818;28;20243;-82
2023/03/30 01:46:24;;;;;;;24.58;4.18;;;;;;;-145.69;100.00;52282.00;5054614;28;20231;-82
2023/03/30 01:48:59;;;;;;;18.25;2.65;;;;;;;-145.69;100.00;52305.75;5054168;28;20203;-83
2023/03/30 01:51:31;;;;;;;17.30;2.38;;;;;;;-145.69;100.00;52285.97;5054270;28;20203;-83
2023/03/30 01:54:03;;;;;;;12.30;2.35;;;;;;;-145.69;100.00;52283.97;5054230;28;20207;-82
2023/03/30 01:56:35;;;;;;;22.60;3.05;;;;;;;-145.69;100.00;52278.03;5053942;28;20647;-83
2023/03/30 01:59:08;;;;;;;15.48;2.50;;;;;;;-145.69;100.00;52293.88;5054116;28;20199;-83
2023/03/30 02:01:38;;;;;;;21.55;2.80;;;;;;;-145.69;100.00;52282.00;5060782;28;20198;-82
2023/03/30 02:04:07;;;;;;;21.55;2.50;;;;;;;-145.69;100.00;52258.22;5073836;28;20199;-82
2023/03/30 02:06:38;;;;;;;17.67;3.03;;;;;;;-145.69;100.00;52303.78;5067137;28;20200;-81
2023/03/30 02:09:07;;;;;;;19.40;3.27;;;;;;;-145.69;100.00;52299.81;5061595;28;20209;-81
2023/03/30 02:11:37;;;;;;;14.13;2.87;;;;;;;-145.69;100.00;52309.72;5073531;28;20207;-81
2023/03/30 02:14:08;;;;;;;11.60;2.80;;;;;;;-145.69;100.00;52297.84;5073475;28;20199;-81
2023/03/30 02:16:40;;;;;;;17.23;2.77;;;;;;;-145.69;100.00;52287.94;5073466;28;20299;-80
2023/03/30 02:19:07;;;;;;;18.60;3.00;;;;;;;-145.69;100.00;52289.91;5073469;28;20212;-81
2023/03/30 02:21:34;;;;;;;12.83;2.77;;;;;;;-145.69;100.00;52329.53;5073670;28;20203;-80
2023/03/30 02:24:03;;;;;;;14.97;2.67;;;;;;;-145.69;100.00;52278.03;5073252;28;20239;-79
2023/03/30 02:26:30;;;;;;;16.37;3.23;;;;;;;-145.69;100.00;52313.69;5073317;28;20276;-80
2023/03/30 02:28:58;;;;;;;20.08;3.45;;;;;;;-145.69;100.00;52285.97;5071691;28;20691;-80
2023/03/30 02:31:25;;;;;;;21.40;5.17;;;;;;;-145.69;100.00;52325.56;5073061;28;20699;-80
2023/03/30 02:34:08;;;;;;;14.67;2.67;;;;;;;-145.69;100.00;52313.69;5072804;28;20210;-80
2023/03/30 02:36:48;;;;;;;18.70;2.80;;;;;;;-145.69;100.00;52285.97;5073323;28;20201;-82
2023/03/30 02:39:34;;;;;;;14.80;3.22;;;;;;;-145.69;100.00;52333.47;5072945;28;20289;-81
2023/03/30 02:42:22;;;;;;;18.20;3.57;;;;;;;-145.69;100.00;52317.66;5072815;28;20548;-80
2023/03/30 02:45:05;;;;;;;21.97;4.40;;;;;;;-145.69;100.00;52325.56;5072819;28;20222;-80
2023/03/30 02:47:41;;;;;;;18.70;3.60;;;;;;;-145.69;100.00;52337.44;5072885;28;20193;-80
2023/03/30 02:50:16;;;;;;;21.53;3.97;;;;;;;-145.69;100.00;52359.22;5072433;28;20668;-81
2023/03/30 02:52:55;;;;;;;23.10;3.23;;;;;;;-145.69;100.00;52337.44;5073021;28;20726;-81
2023/03/30 02:55:27;;;;;;;14.43;2.90;;;;;;;-145.69;100.00;52341.41;5072933;28;20206;-82
2023/03/30 02:58:06;;;;;;;21.83;3.93;;;;;;;-145.69;100.00;52329.53;5073018;28;20294;-81
2023/03/30 03:00:41;;;;;;;16.33;3.10;;;;;;;-145.69;100.00;52321.59;5072932;28;20203;-82
2023/03/30 03:03:15;;;;;;;15.90;3.13;;;;;;;-145.69;100.00;52317.66;5072670;28;20239;-80
2023/03/30 03:05:43;;;;;;;24.83;3.83;;;;;;;-145.69;100.00;52321.59;5072470;28;20580;-81
2023/03/30 03:08:13;;;;;;;13.93;2.90;;;;;;;-145.69;100.00;52349.31;5071572;28;20206;-81
2023/03/30 03:10:40;;;;;;;21.60;3.67;;;;;;;-145.69;100.00;52337.44;5072940;28;20199;-81
2023/03/30 03:13:07;;;;;;;20.93;3.00;;;;;;;-145.69;100.00;52353.28;5072380;28;20195;-81
2023/03/30 03:15:36;;;;;;;28.77;3.63;;;;;;;-145.69;100.00;52347.34;5072979;28;20207;-82
2023/03/30 03:18:03;;;;;;;18.97;3.90;;;;;;;-145.69;100.00;52327.53;5072499;28;20199;-82
2023/03/30 03:20:29;;;;;;;22.67;4.17;;;;;;;-145.69;100.00;52349.31;5072715;28;20231;-82
2023/03/30 03:22:56;;;;;;;15.23;2.80;;;;;;;-145.69;100.00;52319.63;5072763;28;20205;-82
2023/03/30 03:25:22;;;;;;;23.20;3.37;;;;;;;-145.69;100.00;52373.09;5072797;28;20249;-82
2023/03/30 03:27:49;;;;;;;19.87;4.20;;;;;;;-145.69;100.00;52355.28;5072520;28;20199;-82
2023/03/30 03:30:16;;;;;;;24.87;4.13;;;;;;;-145.69;100.00;52357.25;5076128;28;20202;-83
2023/03/30 03:32:43;;;;;;;28.80;4.00;;;;;;;-145.69;100.00;52333.47;5077068;28;20202;-83
2023/03/30 03:35:10;;;;;;;18.27;3.97;;;;;;;-145.69;100.00;52377.06;5078729;28;20198;-82
2023/03/30 03:37:36;;;;;;;17.30;3.00;;;;;;;-145.69;100.00;52345.38;5076668;28;20202;-81
2023/03/30 03:40:05;;;;;;;22.88;3.22;;;;;;;-145.69;100.00;52367.16;5076034;28;20206;-80
2023/03/30 03:42:31;;;;;;;19.60;4.00;;;;;;;-145.69;100.00;52331.50;5076138;28;20230;-81
2023/03/30 03:44:58;;;;;;;20.60;3.50;;;;;;;-145.69;100.00;52361.22;5076220;28;20728;-81
2023/03/30 03:47:24;;;;;;;30.27;3.73;;;;;;;-145.69;100.00;52347.34;5076354;28;20195;-81
2023/03/30 03:49:52;;;;;;;18.37;3.17;;;;;;;-145.69;100.00;52345.38;5076365;28;20290;-82
2023/03/30 03:52:19;;;;;;;24.13;3.33;;;;;;;-145.69;100.00;52369.13;5076263;28;20221;-82
2023/03/30 03:54:45;;;;;;;17.97;3.07;;;;;;;-145.69;100.00;52359.22;5076266;28;20252;-82
2023/03/30 03:57:12;;;;;;;16.33;2.90;;;;;;;-145.69;100.00;52353.28;5074364;28;20205;-81
2023/03/30 03:59:38;;;;;;;12.57;3.33;;;;;;;-145.69;100.00;52357.25;5074790;28;20202;-81
2023/03/30 04:02:05;;;;;;;18.85;3.70;;;;;;;-145.69;100.00;52361.22;5075850;28;20445;-82
2023/03/30 04:04:32;;;;;;;24.23;3.77;;;;;;;-145.69;100.00;52349.31;5076257;28;20194;-81
2023/03/30 04:07:00;;;;;;;16.33;3.20;;;;;;;-145.69;100.00;52335.47;5076014;28;20596;-81
2023/03/30 04:09:26;;;;;;;23.70;3.87;;;;;;;-145.69;100.00;52337.44;5075118;28;20198;-81
2023/03/30 04:11:53;;;;;;;22.33;3.47;;;;;;;-145.69;100.00;52345.38;5075823;28;20256;-83
2023/03/30 04:14:19;;;;;;;17.37;3.40;;;;;;;-145.69;100.00;52379.03;5075807;28;20621;-80
2023/03/30 04:16:47;;;;;;;22.47;4.57;;;;;;;-145.69;100.00;52353.28;5075702;28;20217;-82
2023/03/30 04:19:14;;;;;;;14.67;3.30;;;;;;;-145.69;100.00;52390.91;5075590;28;20709;-81
2023/03/30 04:21:45;;;;;;;24.27;2.63;;;;;;;-145.69;100.00;52345.38;5076491;28;20234;-83
2023/03/30 04:24:13;;;;;;;19.50;4.23;;;;;;;-145.69;100.00;52392.91;5075510;28;20202;-82
2023/03/30 04:26:40;;;;;;;25.03;3.87;;;;;;;-145.69;100.00;52345.38;5075871;28;20222;-82
2023/03/30 04:29:07;;;;;;;16.40;3.07;;;;;;;-145.69;100.00;52357.25;5076180;28;20233;-83
2023/03/30 04:31:33;;;;;;;21.73;2.97;;;;;;;-145.69;100.00;52363.19;5075973;28;20568;-83
2023/03/30 04:34:01;;;;;;;21.57;3.47;;;;;;;-145.69;100.00;52349.31;5076200;28;20206;-83
2023/03/30 04:36:28;;;;;;;20.80;3.57;;;;;;;-145.69;100.00;52333.47;5076268;28;20253;-82
2023/03/30 04:38:58;;;;;;;14.00;2.63;;;;;;;-145.69;100.00;52349.31;5076144;28;20281;-83
2023/03/30 04:41:40;;;;;;;15.73;3.20;;;;;;;-145.69;100.00;52337.44;5074746;28;20708;-82
2023/03/30 04:44:09;;;;;;;14.23;2.35;;;;;;;-145.69;100.00;52303.78;5075964;28;20348;-82
2023/03/30 04:46:36;;;;;;;32.50;2.90;;;;;;;-145.69;100.00;52351.31;5076403;28;20222;-83
2023/03/30 04:49:03;;;;;;;12.70;2.60;;;;;;;-145.69;100.00;52333.47;5075978;28;20198;-81
2023/03/30 04:51:30;;;;;;;26.50;2.90;;;;;;;-145.69;100.00;52329.53;5076357;28;20202;-82
2023/03/30 04:53:56;;;;;;;19.33;2.55;;;;;;;-145.69;100.00;52349.31;5075992;28;20201;-82
2023/03/30 04:56:23;;;;;;;18.88;2.90;;;;;;;-145.69;100.00;52313.69;5076892;28;20210;-83
2023/03/30 04:58:51;;;;;;;17.40;2.80;;;;;;;-145.69;100.00;52303.78;5075737;28;20218;-82
2023/03/30 05:01:17;;;;;;;21.13;2.72;;;;;;;-145.69;100.00;52309.72;5076300;28;20198;-81
2023/03/30 05:03:44;;;;;;;18.23;2.90;;;;;;;-145.69;100.00;52301.81;5075509;28;20199;-83
2023/03/30 05:06:11;;;;;;;16.05;2.58;;;;;;;-145.69;100.00;52317.66;5077101;28;20226;-82
2023/03/30 05:08:38;;;;;;;20.85;2.97;;;;;;;-145.69;100.00;52321.59;5075195;28;20211;-82
2023/03/30 05:11:05;;;;;;;19.88;2.67;;;;;;;-145.69;100.00;52305.75;5075193;28;20207;-83
2023/03/30 05:13:32;;;;;;;17.98;2.75;;;;;;;-145.69;100.00;52327.53;5074956;28;20210;-81
2023/03/30 05:16:00;;;;;;;24.15;2.65;;;;;;;-145.69;100.00;52309.72;5075771;28;20213;-81
2023/03/30 05:18:26;;;;;;;20.83;2.70;;;;;;;-145.69;100.00;52301.81;5074377;28;20244;-81
2023/03/30 05:20:56;;;;;;;19.65;2.85;;;;;;;-145.69;100.00;52297.84;5074716;28;20194;-81
2023/03/30 05:23:23;;;;;;;14.35;3.15;;;;;;;-145.69;100.00;52289.91;5075370;28;20665;-82
2023/03/30 05:25:49;;;;;;;11.93;1.88;;;;;;;-145.69;100.00;52325.56;5075141;28;20225;-82
2023/03/30 05:28:17;;;;;;;11.50;2.70;;;;;;;-145.69;100.00;52305.75;5076301;28;20683;-83
2023/03/30 05:30:43;;;;;;;18.15;3.03;;;;;;;-145.69;100.00;52309.72;5075438;28;20447;-83
2023/03/30 05:33:11;;;;;;;14.20;2.20;;;;;;;-145.69;100.00;52293.88;5076329;28;20233;-84
2023/03/30 05:35:38;;;;;;;16.23;2.70;;;;;;;-145.69;100.00;52276.06;5075087;28;20203;-82
2023/03/30 05:38:06;;;;;;;16.52;2.90;;;;;;;-145.69;100.00;52287.94;5074377;28;20198;-83
2023/03/30 05:40:32;;;;;;;8.98;2.45;;;;;;;-145.69;100.00;52289.91;5074326;28;20209;-82
2023/03/30 05:42:59;;;;;;;22.45;3.05;;;;;;;-145.69;100.00;52307.75;5073972;28;20234;-82
2023/03/30 05:45:25;;;;;;;13.52;2.33;;;;;;;-145.69;100.00;52301.81;5073913;28;20205;-81
2023/03/30 05:47:53;;;;;;;19.02;2.78;;;;;;;-145.69;100.00;52303.78;5074677;28;20672;-83
2023/03/30 05:50:21;;;;;;;17.20;2.17;;;;;;;-145.69;100.00;52299.81;5076593;28;20209;-85
2023/03/30 05:52:48;;;;;;;15.05;2.67;;;;;;;-145.69;100.00;52274.06;5075238;28;20704;-84
2023/03/30 05:55:15;;;;;;;19.17;2.15;;;;;;;-145.69;100.00;52270.13;5074328;28;20202;-84
2023/03/30 05:57:41;;;;;;;18.48;2.78;;;;;;;-145.69;100.00;52297.84;5074465;28;20216;-83
2023/03/30 06:00:11;;;;;;;16.70;2.83;;;;;;;-145.69;100.00;52313.69;5074488;28;20205;-83
2023/03/30 06:02:37;;;;;;;15.82;2.28;;;;;;;-145.69;100.00;52315.66;5071194;28;20650;-82
2023/03/30 06:05:04;;;;;;;18.30;3.08;;;;;;;-145.69;100.00;52299.81;5073871;28;20199;-82
2023/03/30 06:07:32;;;;;;;15.82;3.15;;;;;;;-145.69;100.00;52289.91;5074160;28;20232;-83
2023/03/30 06:10:02;;;;;;;9.75;2.58;;;;;;;-145.69;100.00;52297.84;5073770;28;20205;-83
2023/03/30 06:12:28;;;;;;;17.55;2.90;;;;;;;-145.69;100.00;52283.97;5074194;28;20199;-83
2023/03/30 06:14:55;;;;;;;14.60;2.55;;;;;;;-145.69;100.00;52325.56;5073808;28;20206;-82
2023/03/30 06:17:21;;;;;;;12.65;2.10;;;;;;;-145.69;100.00;52339.44;5073581;28;20226;-82
2023/03/30 06:19:48;;;;;;;8.65;2.13;;;;;;;-145.69;100.00;52313.69;5073115;28;20199;-83
2023/03/30 06:22:14;;;;;;;13.18;2.85;;;;;;;-145.69;100.00;52317.66;5073089;28;20202;-83
2023/03/30 06:24:42;;;;;;;12.40;2.55;;;;;;;-145.69;100.00;52307.75;5073245;28;20202;-83
2023/03/30 06:27:09;;;;;;;15.48;2.33;;;;;;;-145.69;100.00;52309.72;5073407;28;20229;-82
2023/03/30 06:29:35;;;;;;;26.38;2.75;;;;;;;-145.69;100.00;52278.03;5071928;28;20194;-83
2023/03/30 06:32:03;;;;;;;15.50;2.63;;;;;;;-145.69;100.00;52313.69;5073456;28;20339;-82
2023/03/30 06:34:30;;;;;;;16.27;2.50;;;;;;;-145.69;100.00;52287.94;5073259;28;20619;-82
2023/03/30 06:36:56;;;;;;;14.63;2.67;;;;;;;-145.69;100.00;52293.88;5073746;28;20208;-83
2023/03/30 06:39:24;;;;;;;10.98;2.60;;;;;;;-145.69;100.00;52274.06;5073369;28;20221;-83
2023/03/30 06:41:52;;;;;;;14.02;2.90;;;;;;;-145.69;100.00;52299.81;5073237;28;20202;-83
2023/03/30 06:44:19;;;;;;;10.85;2.20;;;;;;;-145.69;100.00;52295.84;5072720;28;20223;-83
2023/03/30 06:46:45;;;;;;;16.95;2.50;;;;;;;-145.69;100.00;52287.94;5072852;28;20254;-82
2023/03/30 06:49:12;;;;;;;12.43;2.15;;;;;;;-145.69;100.00;52270.13;5072271;28;20274;-82
2023/03/30 06:51:39;;;;;;;21.35;2.45;;;;;;;-145.69;100.00;52293.88;5072992;28;20267;-82
2023/03/30 06:54:05;;;;;;;13.57;2.70;;;;;;;-145.69;100.00;52293.88;5072966;28;20199;-83
2023/03/30 06:56:32;;;;;;;21.17;2.83;;;;;;;-145.69;100.00;52293.88;5072824;28;20199;-84
2023/03/30 06:59:00;;;;;;;15.30;2.13;;;;;;;-145.69;100.00;52283.97;5073151;28;20199;-83
2023/03/30 07:01:26;;;;;;;14.48;2.40;;;;;;;-145.69;100.00;52282.00;5072994;28;20203;-83
2023/03/30 07:03:53;;;;;;;16.67;2.67;;;;;;;-145.69;100.00;52291.91;5072526;28;20216;-84
2023/03/30 07:06:19;;;;;;;13.43;2.50;;;;;;;-145.69;100.00;52305.75;5073146;28;20268;-83
2023/03/30 07:08:46;;;;;;;20.95;2.90;;;;;;;-145.69;100.00;52291.91;5072993;28;20195;-83
2023/03/30 07:11:12;;;;;;;13.40;2.75;;;;;;;-145.69;100.00;52266.16;5073358;28;20209;-84
2023/03/30 07:13:38;;;;;;;18.35;2.45;;;;;;;-145.69;100.00;52297.84;5073015;28;20210;-83
2023/03/30 07:16:07;;;;;;;21.45;2.80;;;;;;;-145.69;100.00;52293.88;5073210;28;20202;-83
2023/03/30 07:18:34;;;;;;;14.35;3.08;;;;;;;-145.69;100.00;52321.59;5072983;28;20240;-82
2023/03/30 07:21:00;;;;;;;23.20;3.20;;;;;;;-145.69;100.00;52287.94;5072960;28;20201;-82
2023/03/30 07:23:27;;;;;;;12.52;2.28;;;;;;;-145.69;100.00;52266.16;5072894;28;20708;-83
2023/03/30 07:25:53;;;;;;;14.80;2.85;;;;;;;-145.69;100.00;52282.00;5072823;28;20662;-82
2023/03/30 07:28:20;;;;;;;22.98;2.85;;;;;;;-145.69;100.00;52274.06;5071758;28;20202;-83
2023/03/30 07:30:46;;;;;;;19.95;2.50;;;;;;;-145.69;100.00;52287.94;5072933;28;20201;-83
2023/03/30 07:33:14;;;;;;;22.48;3.05;;;;;;;-145.69;100.00;52272.09;5072875;28;20684;-83
2023/03/30 07:35:43;;;;;;;15.77;3.10;;;;;;;-145.69;100.00;52305.75;5072890;28;20205;-82
2023/03/30 07:38:10;;;;;;;14.10;2.63;;;;;;;-145.69;100.00;52295.84;5072876;28;20234;-83
2023/03/30 07:40:36;;;;;;;17.25;2.58;;;;;;;-145.69;100.00;52285.97;5072920;28;20198;-82
2023/03/30 07:43:03;;;;;;;16.83;3.15;;;;;;;-145.69;100.00;52270.13;5072842;28;20609;-82
2023/03/30 07:45:30;;;;;;;17.92;2.40;;;;;;;-145.69;100.00;52280.00;5072778;28;20677;-83
2023/03/30 07:47:56;;;;;;;16.00;2.77;;;;;;;-145.69;100.00;52278.03;5071825;28;20462;-83
2023/03/30 07:50:24;;;;;;;14.20;2.80;;;;;;;-145.69;100.00;52305.75;5074565;28;20449;-84
2023/03/30 07:52:51;;;;;;;17.50;2.67;;;;;;;-145.69;100.00;52293.88;5074082;28;20221;-83
2023/03/30 07:55:18;;;;;;;14.80;2.45;;;;;;;-145.69;100.00;52282.00;5072721;28;20285;-83
2023/03/30 07:57:45;;;;;;;15.93;2.58;;;;;;;-145.69;100.00;52293.88;5074811;28;20203;-83
2023/03/30 08:00:14;;;;;;;16.42;2.70;;;;;;;-145.69;100.00;52244.38;5073894;28;20195;-80
2023/03/30 08:02:41;;;;;;;12.25;2.38;;;;;;;-145.69;100.00;52319.63;5072110;28;20211;-80
2023/03/30 08:05:09;;;;;;;19.33;2.90;;;;;;;-145.69;100.00;52278.03;5072048;28;20232;-79
2023/03/30 08:07:37;;;;;;;12.50;2.85;;;;;;;-145.69;100.00;52297.84;5072192;28;20337;-80
2023/03/30 08:10:05;;;;;;;15.25;2.97;;;;;;;-145.69;100.00;52321.59;5061568;28;20199;-83
2023/03/30 08:12:31;;;;;;;15.55;3.03;;;;;;;-145.69;100.00;52309.72;5055809;28;20580;-83
2023/03/30 08:14:58;;;;;;;18.33;3.40;;;;;;;-145.69;100.00;52329.53;5059096;28;20199;-84
2023/03/30 08:17:24;;;;;;;14.90;2.83;;;;;;;-145.69;100.00;52297.84;5070631;28;20199;-83
2023/03/30 08:19:51;;;;;;;18.67;3.08;;;;;;;-145.69;100.00;52305.75;5077360;28;20195;-84
2023/03/30 08:22:17;;;;;;;19.13;3.17;;;;;;;-145.69;100.00;52309.72;5079202;28;20206;-83
2023/03/30 08:24:45;;;;;;;19.73;3.22;;;;;;;-145.69;100.00;52266.16;5079616;28;20213;-83
2023/03/30 08:27:12;;;;;;;21.25;3.13;;;;;;;-145.69;100.00;52274.06;5080633;28;20233;-84
2023/03/30 08:29:38;;;;;;;16.80;3.22;;;;;;;-145.69;100.00;52289.91;5079904;28;20206;-84
2023/03/30 08:32:05;;;;;;;14.48;3.17;;;;;;;-145.69;100.00;52293.88;5080395;28;20561;-83
2023/03/30 08:34:32;;;;;;;16.10;3.13;;;;;;;-145.69;100.00;52305.75;5085844;28;20203;-84
2023/03/30 08:36:58;;;;;;;14.15;3.03;;;;;;;-145.69;100.00;52287.94;5083492;28;20206;-83
2023/03/30 08:39:25;;;;;;;16.42;2.88;;;;;;;-145.69;100.00;52315.66;5080064;28;20649;-81
2023/03/30 08:42:07;;;;;;;12.00;3.00;;;;;;;-145.69;100.00;52287.94;5077132;28;20657;-82
2023/03/30 08:44:36;;;;;;;11.90;2.78;;;;;;;-145.69;100.00;52313.69;5075705;28;20194;-80
2023/03/30 08:47:05;;;;;;;13.77;3.25;;;;;;;-145.69;100.00;52317.66;5074825;28;20276;-83
2023/03/30 08:49:38;;;;;;;14.63;3.60;;;;;;;-145.69;100.00;52299.81;5074295;28;20274;-81
2023/03/30 08:52:05;;;;;;;21.00;4.05;;;;;;;-145.69;100.00;52323.59;5073725;28;20229;-82
2023/03/30 08:54:33;;;;;;;13.20;2.90;;;;;;;-145.69;100.00;52321.59;5075272;28;20198;-82
2023/03/30 08:57:10;;;;;;;13.13;2.90;;;;;;;-145.69;100.00;52321.59;5074824;28;20252;-82
2023/03/30 08:59:43;;;;;;;21.25;3.40;;;;;;;-145.69;100.00;52345.38;5075879;28;20191;-82
2023/03/30 09:02:18;;;;;;;16.33;3.45;;;;;;;-145.69;100.00;52317.66;5074836;28;20205;-82
2023/03/30 09:04:56;;;;;;;13.50;3.78;;;;;;;-145.69;100.00;52321.59;5074738;28;20210;-81
2023/03/30 09:07:26;;;;;;;18.60;3.65;;;;;;;-145.69;100.00;52347.34;5074877;28;20657;-79
2023/03/30 09:09:53;;;;;;;16.07;4.33;;;;;;;-145.69;100.00;52317.66;5074812;28;20246;-79
2023/03/30 09:12:29;;;;;;;17.70;3.88;;;;;;;-145.69;100.00;52329.53;5074764;28;20710;-79
2023/03/30 09:14:59;;;;;;;26.53;4.33;;;;;;;-145.69;100.00;52345.38;5074765;28;20218;-79
2023/03/30 09:17:32;;;;;;;26.47;4.13;;;;;;;-145.69;100.00;52361.22;5074658;28;20195;-79
2023/03/30 09:20:05;;;;;;;14.10;3.67;;;;;;;-145.69;100.00;52327.53;5074469;28;20195;-79
2023/03/30 09:22:37;;;;;;;24.37;5.80;;;;;;;-145.69;100.00;52339.44;5073287;28;20821;-80
2023/03/30 09:25:13;;;;;;;21.90;4.17;;;;;;;-145.69;100.00;52373.09;5074219;28;20195;-79
2023/03/30 09:27:47;;;;;;;23.60;4.77;;;;;;;-145.69;100.00;52341.41;5073342;28;20226;-79
2023/03/30 09:30:18;;;;;;;25.93;5.57;;;;;;;-145.69;100.00;52337.44;5074293;28;20557;-79
2023/03/30 09:32:53;;;;;;;21.73;9.50;;;;;;;-145.69;100.00;52331.50;5074451;28;20187;-79
2023/03/30 09:35:24;;;;;;;16.57;7.80;;;;;;;-145.69;100.00;52351.31;5074295;28;20201;-79
2023/03/30 09:37:51;;;;;;;21.00;5.67;;;;;;;-145.69;100.00;52363.19;5074236;28;20199;-80
2023/03/30 09:40:28;;;;;;;20.57;5.00;;;;;;;-145.69;100.00;52357.25;5074381;28;20214;-80
2023/03/30 09:43:06;;;;;;;28.67;5.03;;;;;;;-145.69;100.00;52317.66;5073811;28;20716;-79
2023/03/30 09:45:33;;;;;;;16.83;5.63;;;;;;;-145.69;100.00;52355.28;5074224;28;20198;-79
2023/03/30 09:48:04;;;;;;;19.07;5.30;;;;;;;-145.69;100.00;52343.38;5073843;28;20223;-80
2023/03/30 09:50:31;;;;;;;15.03;4.70;;;;;;;-145.69;100.00;52361.22;5073650;28;20199;-80
2023/03/30 09:53:00;;;;;;;23.23;6.63;;;;;;;-145.69;100.00;52388.94;5073284;28;20234;-80
2023/03/30 09:55:30;;;;;;;16.87;5.60;;;;;;;-145.69;100.00;52359.22;5073218;28;20206;-80
2023/03/30 09:58:13;;;;;;;16.57;4.97;;;;;;;-145.69;100.00;52357.25;5073738;28;20234;-80
2023/03/30 10:00:40;;;;;;;18.43;4.50;;;;;;;-145.69;100.00;52373.09;5073630;28;20202;-81
2023/03/30 10:03:08;;;;;;;16.17;5.60;;;;;;;-145.69;100.00;52365.16;5073430;28;20215;-80
2023/03/30 10:05:36;;;;;;;19.80;4.60;;;;;;;-145.69;100.00;52369.13;5073660;28;20657;-80
2023/03/30 10:08:05;;;;;;;15.37;4.77;;;;;;;-145.69;100.00;52357.25;5073575;28;20231;-80
2023/03/30 10:10:34;;;;;;;15.73;5.23;;;;;;;-145.69;100.00;52361.22;5073603;28;20202;-80
2023/03/30 10:13:06;;;;;;;16.90;6.30;;;;;;;-145.69;100.00;52353.28;5070285;28;20572;-81
2023/03/30 10:15:37;;;;;;;8.85;3.95;;;;;;;-145.69;100.00;52363.19;5053733;28;20202;-80
2023/03/30 10:18:24;;;;;;;8.43;2.60;;;;;;;-145.69;100.00;52317.66;5053698;28;20291;-80
2023/03/30 10:20:52;;;;;;;10.82;3.40;;;;;;;-145.69;100.00;52361.22;5053748;28;20203;-80
2023/03/30 10:23:23;;;;;;;20.58;9.07;;;;;;;-145.69;100.00;52345.38;5068261;28;20281;-80
2023/03/30 10:25:50;;;;;;;12.38;2.63;;;;;;;-145.69;100.00;52349.31;5072816;28;20195;-80
2023/03/30 10:28:20;;;;;;;8.05;3.03;;;;;;;-145.69;100.00;52331.50;5072981;28;20272;-80
2023/03/30 10:30:52;;;;;;;10.98;3.30;;;;;;;-145.69;100.00;52321.59;5072989;28;20285;-80
2023/03/30 10:33:20;;;;;;;9.13;2.75;;;;;;;-145.69;100.00;52339.44;5073571;28;20234;-80
2023/03/30 10:35:50;;;;;;;11.10;2.15;;;;;;;-145.69;100.00;52323.59;5072861;28;20198;-80
2023/03/30 10:38:17;;;;;;;7.75;2.30;;;;;;;-145.69;100.00;52293.88;5072236;28;20207;-80
2023/03/30 10:40:46;;;;;;;7.22;2.35;;;;;;;-145.69;100.00;52339.44;5073024;28;20191;-80
2023/03/30 10:43:15;;;;;;;8.85;2.75;;;;;;;-145.69;100.00;52289.91;5072599;28;20598;-80
2023/03/30 10:45:46;;;;;;;7.55;3.38;;;;;;;-145.69;100.00;52307.75;5073349;28;20288;-80
2023/03/30 10:48:37;;;;;;;12.30;2.60;;;;;;;-145.69;100.00;52345.38;5072474;28;20218;-80
2023/03/30 10:51:10;;;;;;;8.98;2.22;;;;;;;-145.69;100.00;52347.34;5062880;28;20653;-79
2023/03/30 10:53:48;;;;;;;6.32;2.47;;;;;;;-145.69;100.00;52321.59;5072761;28;20199;-79
2023/03/30 10:56:25;;;;;;;7.78;3.05;;;;;;;-145.69;100.00;52357.25;5072759;28;20191;-80
2023/03/30 10:59:20;;;;;;;5.90;2.65;;;;;;;-145.69;100.00;52325.56;5072583;28;20198;-80
2023/03/30 11:02:00;;;;;;;12.25;2.88;;;;;;;-145.69;100.00;52325.56;5058688;28;20218;-80
2023/03/30 11:04:35;;;;;;;12.00;2.92;;;;;;;-145.69;100.00;52301.81;5072678;28;20198;-80
2023/03/30 11:07:02;;;;;;;8.13;2.80;;;;;;;-145.69;100.00;52327.53;5073014;28;20194;-80
2023/03/30 11:09:32;;;;;;;11.43;2.75;;;;;;;-145.69;100.00;52345.38;5072385;28;20301;-80
2023/03/30 11:12:04;;;;;;;14.55;2.80;;;;;;;-145.69;100.00;52337.44;5073054;28;20545;-80
2023/03/30 11:14:39;;;;;;;13.25;2.70;;;;;;;-145.69;100.00;52329.53;5072401;28;20201;-80